F/V Bougainville — FMAS — position and weather

sailwx.info

Track history (hours):
 
Tides and Currents Weather Stations Pressure Air Temp Water Temp Dewpoint Dewpoint Depression Visibility Wind Speed Wind Dir Waves Ship Positions

F/V Bougainville

Last reported at 2017-Nov-17 15:54 UTC. Time now 2017-Nov-17 17:50 UTC.
Position N 48°59' W 007°05'.

Length 24 m; draft 4.1 m.

Type: Fishing. MMSI: 228190600.

Date/timePositionNaut miles runAvg speedWind from/ knotsBaromVisibWave heightAir tempDewpointWater temp
2017-Nov-17 15:54N 48°59' W 007°05'15 0.4
2017-Nov-16 01:32N 49°03' W 007°27'18 0.5
2017-Nov-14 17:03N 49°12' W 007°03'0 1.4
2017-Nov-14 16:44N 49°12' W 007°03'2 2.8
2017-Nov-14 16:11N 49°11' W 007°05'1 2.8
2017-Nov-14 15:48N 49°10' W 007°05'1 3.1
2017-Nov-14 15:26N 49°09' W 007°07'5 3.2
2017-Nov-14 13:57N 49°06' W 007°12'3 3.5
2017-Nov-14 13:02N 49°03' W 007°15'0 3.6
2017-Nov-14 13:00N 49°03' W 007°15'2 3.7
2017-Nov-14 12:30N 49°02' W 007°17'2 3.8
2017-Nov-14 11:51N 49°00' W 007°20'2 0.5
2017-Nov-14 08:53N 49°01' W 007°18'9 3.4
2017-Nov-14 06:20N 49°07' W 007°09'4 3.6
2017-Nov-14 05:18N 49°10' W 007°05'1 2.0
2017-Nov-14 04:37N 49°11' W 007°04'0 3.0
2017-Nov-14 04:30N 49°11' W 007°04'  
2017-Nov-11 10:48N 48°59' W 007°05'2 3.3
2017-Nov-11 10:08N 48°57' W 007°08'0 3.4
2017-Nov-11 10:00N 48°57' W 007°08'53 1.3
2017-Nov-09 18:00N 48°40' W 005°52'15 8.1
2017-Nov-09 16:09N 48°33' W 005°32'2 8.3
2017-Nov-09 15:57N 48°32' W 005°30'4 9.2
2017-Nov-09 15:30N 48°30' W 005°25'5 9.4
2017-Nov-09 15:00N 48°26' W 005°20'4 8.8
2017-Nov-09 14:31N 48°23' W 005°17'4 8.6
2017-Nov-09 14:00N 48°19' W 005°14'4 8.7
2017-Nov-09 13:30N 48°15' W 005°10'4 8.2
2017-Nov-09 13:00N 48°14' W 005°04'5 9.3
2017-Nov-09 12:30N 48°10' W 004°59'5 9.6
2017-Nov-09 12:00N 48°07' W 004°54'5 9.6
2017-Nov-09 11:30N 48°04' W 004°49'4 7.8
2017-Nov-09 11:00N 48°01' W 004°45'4 8.5
2017-Nov-09 10:30N 47°57' W 004°41'5 9.5
2017-Nov-09 10:00N 47°54' W 004°36'5 9.5
2017-Nov-09 09:30N 47°51' W 004°31'5 9.2
2017-Nov-09 09:00N 47°47' W 004°26'4 8.6
2017-Nov-09 08:30N 47°46' W 004°20'  
Track history (hours):
 
Tides and Currents Weather Stations Pressure Air Temp Water Temp Dewpoint Dewpoint Depression Visibility Wind Speed Wind Dir Waves Ship Positions

F/V Bougainville

Last reported at 2017-Nov-17 15:54 UTC. Time now 2017-Nov-17 17:50 UTC.
Position N 48°59' W 007°05'.

Length 24 m; draft 4.1 m.

Type: Fishing. MMSI: 228190600.

Date/timePositionNaut miles runAvg speedWind from/ knotsBaromVisibWave heightAir tempDewpointWater temp
2017-Nov-17 15:54N 48°59' W 007°05'15 0.4
2017-Nov-16 01:32N 49°03' W 007°27'18 0.5
2017-Nov-14 17:03N 49°12' W 007°03'0 1.4
2017-Nov-14 16:44N 49°12' W 007°03'2 2.8
2017-Nov-14 16:11N 49°11' W 007°05'1 2.8
2017-Nov-14 15:48N 49°10' W 007°05'1 3.1
2017-Nov-14 15:26N 49°09' W 007°07'5 3.2
2017-Nov-14 13:57N 49°06' W 007°12'3 3.5
2017-Nov-14 13:02N 49°03' W 007°15'0 3.6
2017-Nov-14 13:00N 49°03' W 007°15'2 3.7
2017-Nov-14 12:30N 49°02' W 007°17'2 3.8
2017-Nov-14 11:51N 49°00' W 007°20'2 0.5
2017-Nov-14 08:53N 49°01' W 007°18'9 3.4
2017-Nov-14 06:20N 49°07' W 007°09'4 3.6
2017-Nov-14 05:18N 49°10' W 007°05'1 2.0
2017-Nov-14 04:37N 49°11' W 007°04'0 3.0
2017-Nov-14 04:30N 49°11' W 007°04'  
2017-Nov-11 10:48N 48°59' W 007°05'2 3.3
2017-Nov-11 10:08N 48°57' W 007°08'0 3.4
2017-Nov-11 10:00N 48°57' W 007°08'53 1.3
2017-Nov-09 18:00N 48°40' W 005°52'15 8.1
2017-Nov-09 16:09N 48°33' W 005°32'2 8.3
2017-Nov-09 15:57N 48°32' W 005°30'4 9.2
2017-Nov-09 15:30N 48°30' W 005°25'5 9.4
2017-Nov-09 15:00N 48°26' W 005°20'4 8.8
2017-Nov-09 14:31N 48°23' W 005°17'4 8.6
2017-Nov-09 14:00N 48°19' W 005°14'4 8.7
2017-Nov-09 13:30N 48°15' W 005°10'4 8.2
2017-Nov-09 13:00N 48°14' W 005°04'5 9.3
2017-Nov-09 12:30N 48°10' W 004°59'5 9.6
2017-Nov-09 12:00N 48°07' W 004°54'5 9.6
2017-Nov-09 11:30N 48°04' W 004°49'4 7.8
2017-Nov-09 11:00N 48°01' W 004°45'4 8.5
2017-Nov-09 10:30N 47°57' W 004°41'5 9.5
2017-Nov-09 10:00N 47°54' W 004°36'5 9.5
2017-Nov-09 09:30N 47°51' W 004°31'5 9.2
2017-Nov-09 09:00N 47°47' W 004°26'4 8.6
2017-Nov-09 08:30N 47°46' W 004°20'  

Dump ship's entire track history